createdAt,value
2018-11-12T00:03:08.559Z,14.17
2018-11-12T00:06:33.328Z,14.32
2018-11-12T00:09:58.019Z,14.26
2018-11-12T00:13:22.748Z,14.28
2018-11-12T00:16:47.504Z,14.34
2018-11-12T00:20:13.662Z,14.05
2018-11-12T00:23:38.277Z,14.33
2018-11-12T00:27:02.896Z,14.24
2018-11-12T00:30:27.564Z,14.12
2018-11-12T00:33:52.286Z,14.13
2018-11-12T00:37:17.009Z,14.08
2018-11-12T00:40:41.766Z,14.18
2018-11-12T00:44:06.515Z,14.21
2018-11-12T00:47:31.252Z,14.26
2018-11-12T00:50:56.006Z,14.34
2018-11-12T00:54:20.767Z,14.16
2018-11-12T00:57:45.804Z,14.42
2018-11-12T01:01:10.556Z,14.28
2018-11-12T01:04:35.450Z,14.39
2018-11-12T01:08:00.181Z,14.09
2018-11-12T01:11:24.917Z,14.20
2018-11-12T01:14:49.564Z,14.18
2018-11-12T01:18:14.241Z,14.21
2018-11-12T01:21:38.942Z,14.13
2018-11-12T01:25:03.699Z,14.08
2018-11-12T01:28:28.367Z,14.25
2018-11-12T01:31:53.056Z,14.10
2018-11-12T01:35:18.662Z,14.14
2018-11-12T01:38:43.358Z,13.98
2018-11-12T01:42:08.156Z,14.04
2018-11-12T01:45:32.822Z,13.98
2018-11-12T01:48:57.469Z,13.88
2018-11-12T01:52:22.159Z,13.96
2018-11-12T01:55:46.855Z,13.87
2018-11-12T01:59:11.492Z,13.50
2018-11-12T02:02:36.175Z,14.02
2018-11-12T02:06:00.873Z,13.83
2018-11-12T02:09:25.509Z,13.84
2018-11-12T02:12:50.225Z,14.06
2018-11-12T02:16:14.920Z,13.99
2018-11-12T02:19:39.661Z,14.00
2018-11-12T02:23:04.432Z,14.02
2018-11-12T02:26:29.191Z,13.90
2018-11-12T02:29:53.886Z,13.90
2018-11-12T02:33:19.055Z,14.06
2018-11-12T02:36:43.670Z,13.96
2018-11-12T02:40:11.074Z,13.91
2018-11-12T02:43:35.759Z,13.99
2018-11-12T02:47:00.502Z,13.76
2018-11-12T02:50:25.128Z,13.91
2018-11-12T02:53:49.756Z,13.92
2018-11-12T02:57:14.466Z,13.88
2018-11-12T03:00:39.157Z,13.85
2018-11-12T03:04:03.863Z,13.89
2018-11-12T03:07:28.659Z,13.96
2018-11-12T03:10:53.289Z,13.88
2018-11-12T03:14:17.930Z,13.82
2018-11-12T03:17:43.328Z,13.83
2018-11-12T03:21:08.158Z,13.94
2018-11-12T03:24:32.838Z,13.87
2018-11-12T03:27:57.520Z,14.02
2018-11-12T03:31:22.250Z,13.91
2018-11-12T03:34:46.931Z,13.63
2018-11-12T03:38:11.629Z,14.02
2018-11-12T03:41:36.531Z,14.03
2018-11-12T03:45:01.223Z,14.05
2018-11-12T03:48:25.886Z,13.89
2018-11-12T03:51:50.537Z,13.91
2018-11-12T03:55:16.467Z,13.72
2018-11-12T03:58:41.154Z,13.79
2018-11-12T04:02:06.409Z,13.71
2018-11-12T04:05:31.107Z,13.79
2018-11-12T04:08:55.779Z,13.81
2018-11-12T04:12:20.500Z,13.85
2018-11-12T04:15:45.211Z,13.81
2018-11-12T04:19:09.993Z,13.94
2018-11-12T04:22:34.640Z,13.96
2018-11-12T04:25:59.292Z,13.90
2018-11-12T04:29:24.018Z,13.93
2018-11-12T04:32:48.716Z,13.90
2018-11-12T04:36:13.368Z,14.02
2018-11-12T04:39:37.991Z,14.08
2018-11-12T04:43:02.695Z,13.96
2018-11-12T04:46:27.406Z,14.02
2018-11-12T04:49:52.096Z,13.95
2018-11-12T04:53:16.822Z,13.99
2018-11-12T04:56:41.514Z,14.00
2018-11-12T05:00:10.032Z,13.95
2018-11-12T05:03:34.738Z,13.98
2018-11-12T05:06:59.427Z,13.98
2018-11-12T05:10:25.215Z,13.96
2018-11-12T05:13:49.983Z,13.86
2018-11-12T05:17:14.667Z,13.77
2018-11-12T05:20:39.338Z,13.76
2018-11-12T05:24:04.050Z,13.86
2018-11-12T05:27:28.831Z,13.98
2018-11-12T05:30:53.560Z,13.79
2018-11-12T05:34:18.267Z,13.82
2018-11-12T05:37:43.199Z,13.79
2018-11-12T05:41:08.119Z,13.81
2018-11-12T05:44:32.805Z,13.59
2018-11-12T05:47:57.600Z,13.81
2018-11-12T05:51:22.287Z,13.85
2018-11-12T05:54:47.058Z,14.01
2018-11-12T05:58:11.720Z,13.91
2018-11-12T06:01:36.489Z,13.86
2018-11-12T06:05:01.281Z,13.85
2018-11-12T06:08:25.925Z,13.91
2018-11-12T06:11:50.663Z,14.00
2018-11-12T06:15:15.624Z,13.94
2018-11-12T06:18:40.324Z,14.02
2018-11-12T06:22:05.076Z,13.76
2018-11-12T06:25:34.774Z,13.79
2018-11-12T06:28:59.445Z,13.75
2018-11-12T06:32:24.126Z,13.78
2018-11-12T06:35:50.957Z,13.74
2018-11-12T06:39:15.691Z,13.72
2018-11-12T06:42:40.487Z,13.69
2018-11-12T06:46:05.496Z,13.80
2018-11-12T06:49:30.239Z,13.85
2018-11-12T06:52:55.079Z,13.62
2018-11-12T06:56:19.837Z,13.82
2018-11-12T06:59:44.527Z,13.94
2018-11-12T07:03:09.232Z,13.81
2018-11-12T07:06:34.073Z,14.02
2018-11-12T07:09:58.681Z,13.85
2018-11-12T07:13:23.484Z,13.93
2018-11-12T07:16:48.948Z,13.92
2018-11-12T07:20:17.933Z,13.94
2018-11-12T07:23:42.601Z,14.04
2018-11-12T07:27:07.334Z,13.90
2018-11-12T07:30:32.097Z,14.01
2018-11-12T07:33:56.765Z,13.95
2018-11-12T07:37:21.493Z,13.93
2018-11-12T07:40:46.149Z,13.96
2018-11-12T07:44:10.881Z,13.87
2018-11-12T07:47:35.598Z,13.91
2018-11-12T07:51:00.333Z,13.96
2018-11-12T07:54:25.039Z,13.91
2018-11-12T07:57:50.928Z,13.89
2018-11-12T08:01:15.609Z,13.92
2018-11-12T08:04:40.254Z,13.94
2018-11-12T08:08:05.016Z,13.89
2018-11-12T08:11:29.682Z,13.89
2018-11-12T08:14:54.397Z,13.93
2018-11-12T08:18:19.038Z,13.94
2018-11-12T08:21:43.784Z,13.96
2018-11-12T08:25:10.133Z,14.14
2018-11-12T08:28:34.807Z,14.04
2018-11-12T08:31:59.612Z,14.07
2018-11-12T08:35:24.346Z,14.11
2018-11-12T08:38:49.053Z,14.22
2018-11-12T08:42:13.694Z,14.22
2018-11-12T08:45:38.350Z,14.50
2018-11-12T08:49:03.687Z,14.58
2018-11-12T08:52:28.445Z,14.78
2018-11-12T08:55:53.153Z,14.85
2018-11-12T08:59:17.965Z,14.86
2018-11-12T09:02:42.852Z,15.02
2018-11-12T09:06:07.584Z,15.08
2018-11-12T09:09:32.296Z,15.07
2018-11-12T09:12:57.068Z,15.01
2018-11-12T09:16:21.814Z,15.01
2018-11-12T09:19:46.531Z,14.99
2018-11-12T09:23:11.281Z,14.88
2018-11-12T09:26:36.061Z,14.92
2018-11-12T09:30:00.770Z,14.91
2018-11-12T09:33:25.455Z,14.89
2018-11-12T09:36:50.152Z,15.10
2018-11-12T09:40:20.355Z,15.11
2018-11-12T09:43:45.439Z,15.25
2018-11-12T09:47:10.144Z,15.14
2018-11-12T09:50:34.850Z,15.19
2018-11-12T09:53:59.588Z,15.09
2018-11-12T09:57:24.242Z,14.88
2018-11-12T10:00:49.229Z,14.88
2018-11-12T10:04:14.571Z,14.96
2018-11-12T10:07:39.964Z,14.93
2018-11-12T10:11:05.432Z,14.91
2018-11-12T10:14:31.143Z,14.99
2018-11-12T10:17:54.949Z,15.24
2018-11-12T10:21:17.483Z,15.16
2018-11-12T10:24:42.157Z,15.13
2018-11-12T10:28:06.916Z,15.29
2018-11-12T10:31:31.638Z,15.23
2018-11-12T10:34:56.388Z,15.35
2018-11-12T10:38:21.081Z,15.41
2018-11-12T10:41:45.794Z,15.34
2018-11-12T10:45:10.599Z,15.47
2018-11-12T10:48:35.290Z,15.54
2018-11-12T10:52:00.196Z,15.65
2018-11-12T10:55:25.970Z,15.60
2018-11-12T10:58:50.551Z,15.66
2018-11-12T11:02:20.406Z,15.58
2018-11-12T11:05:53.194Z,15.73
2018-11-12T11:09:17.885Z,15.78
2018-11-12T11:12:43.161Z,15.78
2018-11-12T11:16:07.925Z,15.79
2018-11-12T11:19:32.630Z,15.77
2018-11-12T11:22:57.369Z,15.67
2018-11-12T11:26:22.067Z,15.77
2018-11-12T11:29:46.755Z,15.85
2018-11-12T11:33:11.506Z,15.88
2018-11-12T11:36:36.200Z,15.85
2018-11-12T11:40:00.945Z,16.30
2018-11-12T11:43:25.623Z,16.78
2018-11-12T11:46:50.328Z,16.93
2018-11-12T11:50:17.560Z,16.57
2018-11-12T11:53:42.147Z,16.51
2018-11-12T11:57:07.115Z,16.08
2018-11-12T12:00:31.786Z,15.92
2018-11-12T12:03:59.817Z,15.95
2018-11-12T12:07:24.491Z,15.92
2018-11-12T12:10:49.194Z,15.85
2018-11-12T12:14:13.915Z,15.78
2018-11-12T12:17:38.675Z,15.57
2018-11-12T12:21:03.563Z,15.71
2018-11-12T12:24:28.279Z,15.96
2018-11-12T12:27:52.956Z,15.96
2018-11-12T12:31:17.673Z,15.79
2018-11-12T12:34:42.399Z,15.70
2018-11-12T12:38:07.199Z,15.57
2018-11-12T12:41:31.882Z,15.19
2018-11-12T12:44:56.697Z,15.05
2018-11-12T12:48:21.384Z,14.99
2018-11-12T12:51:46.134Z,15.14
2018-11-12T12:55:11.718Z,15.06
2018-11-12T12:58:36.440Z,14.99
2018-11-12T13:02:01.200Z,15.14
2018-11-12T13:05:25.896Z,15.05
2018-11-12T13:08:50.649Z,14.90
2018-11-12T13:12:15.355Z,14.96
2018-11-12T13:15:40.621Z,14.80
2018-11-12T13:19:05.459Z,15.04
2018-11-12T13:22:30.122Z,14.80
2018-11-12T13:25:54.892Z,14.83
2018-11-12T13:29:19.644Z,14.80
2018-11-12T13:32:44.938Z,14.45
2018-11-12T13:36:09.649Z,14.77
2018-11-12T13:39:34.365Z,14.67
2018-11-12T13:43:00.358Z,14.67
2018-11-12T13:46:29.235Z,14.65
2018-11-12T13:49:54.021Z,14.95
2018-11-12T13:53:18.729Z,14.82
2018-11-12T13:56:43.523Z,14.95
2018-11-12T14:00:11.927Z,15.11
2018-11-12T14:03:36.627Z,15.16
2018-11-12T14:07:01.379Z,15.01
2018-11-12T14:10:28.825Z,15.03
2018-11-12T14:13:53.668Z,15.10
2018-11-12T14:17:18.376Z,14.88
2018-11-12T14:20:43.143Z,14.78
2018-11-12T14:24:07.819Z,15.05
2018-11-12T14:27:32.496Z,15.21
2018-11-12T14:30:57.139Z,14.85
2018-11-12T14:34:21.839Z,14.86
2018-11-12T14:37:47.204Z,14.77
2018-11-12T14:41:11.863Z,14.92
2018-11-12T14:44:36.511Z,14.53
2018-11-12T14:48:01.153Z,14.91
2018-11-12T14:51:25.846Z,14.69
2018-11-12T14:54:50.524Z,14.73
2018-11-12T14:58:15.173Z,14.51
2018-11-12T15:01:39.824Z,14.15
2018-11-12T15:05:04.590Z,14.42
2018-11-12T15:08:29.298Z,14.24
2018-11-12T15:11:53.945Z,14.51
2018-11-12T15:15:18.735Z,14.45
2018-11-12T15:18:43.441Z,14.60
2018-11-12T15:22:08.158Z,14.54
2018-11-12T15:25:32.917Z,14.29
2018-11-12T15:28:57.811Z,14.72
2018-11-12T15:32:22.519Z,14.62
2018-11-12T15:35:47.293Z,14.66
2018-11-12T15:39:13.582Z,14.62
2018-11-12T15:42:39.176Z,14.66
2018-11-12T15:46:34.702Z,14.52
2018-11-12T15:49:59.466Z,14.56
2018-11-12T15:53:24.205Z,14.38
2018-11-12T15:56:49.075Z,14.17
2018-11-12T16:00:16.495Z,14.61
2018-11-12T16:03:41.123Z,14.47
2018-11-12T16:07:05.893Z,14.33
2018-11-12T16:10:30.577Z,14.33
2018-11-12T16:13:55.298Z,14.49
2018-11-12T16:17:20.023Z,14.37
2018-11-12T16:20:44.710Z,14.13
2018-11-12T16:24:09.385Z,14.34
2018-11-12T16:27:34.037Z,14.45
2018-11-12T16:30:58.763Z,14.45
2018-11-12T16:34:23.426Z,14.44
2018-11-12T16:37:49.245Z,14.51
2018-11-12T16:41:13.953Z,14.32
2018-11-12T16:44:38.625Z,14.45
2018-11-12T16:48:03.291Z,14.35
2018-11-12T16:51:28.010Z,14.40
2018-11-12T16:54:52.758Z,14.46
2018-11-12T16:58:18.593Z,14.43
2018-11-12T17:01:43.274Z,14.44
2018-11-12T17:05:11.064Z,14.45
2018-11-12T17:08:35.735Z,14.39
2018-11-12T17:12:00.449Z,14.41
2018-11-12T17:15:25.166Z,14.45
2018-11-12T17:18:49.927Z,14.65
2018-11-12T17:22:14.625Z,14.46
2018-11-12T17:25:39.352Z,14.47
2018-11-12T17:29:04.185Z,14.49
2018-11-12T17:32:28.953Z,14.32
2018-11-12T17:35:53.668Z,14.52
2018-11-12T17:39:18.406Z,14.41
2018-11-12T17:42:43.331Z,14.19
2018-11-12T17:46:08.072Z,14.41
2018-11-12T17:49:32.796Z,13.91
2018-11-12T17:52:57.536Z,14.01
2018-11-12T17:56:22.223Z,13.88
2018-11-12T17:59:46.897Z,14.32
2018-11-12T18:03:11.602Z,14.34
2018-11-12T18:06:36.367Z,14.35
2018-11-12T18:10:01.149Z,14.30
2018-11-12T18:13:25.934Z,14.26
2018-11-12T18:16:50.616Z,14.20
2018-11-12T18:20:18.643Z,14.28
2018-11-12T18:23:43.386Z,14.50
2018-11-12T18:27:08.177Z,14.31
2018-11-12T18:30:33.451Z,13.93
2018-11-12T18:33:57.949Z,14.02
2018-11-12T18:37:22.639Z,14.08
2018-11-12T18:40:47.318Z,14.00
2018-11-12T18:44:12.036Z,14.02
2018-11-12T18:47:36.799Z,14.05
2018-11-12T18:51:01.497Z,14.15
2018-11-12T18:54:26.234Z,14.15
2018-11-12T18:57:51.449Z,14.19
2018-11-12T19:01:16.147Z,14.32
2018-11-12T19:04:40.838Z,14.41
2018-11-12T19:08:05.603Z,14.28
2018-11-12T19:11:30.332Z,13.91
2018-11-12T19:14:55.128Z,14.13
2018-11-12T19:18:19.803Z,13.83
2018-11-12T19:21:44.623Z,13.90
2018-11-12T19:25:11.396Z,14.10
2018-11-12T19:28:36.151Z,13.91
2018-11-12T19:32:00.834Z,13.71
2018-11-12T19:35:26.889Z,13.93
2018-11-12T19:38:51.556Z,13.90
2018-11-12T19:42:16.213Z,13.94
2018-11-12T19:45:40.897Z,13.90
2018-11-12T19:49:05.703Z,14.00
2018-11-12T19:52:30.417Z,13.55
2018-11-12T19:55:55.060Z,13.89
2018-11-12T19:59:19.769Z,13.85
2018-11-12T20:02:45.569Z,13.89
2018-11-12T20:06:10.293Z,13.88
2018-11-12T20:09:34.996Z,13.73
2018-11-12T20:12:59.673Z,13.83
2018-11-12T20:16:24.383Z,13.82
2018-11-12T20:19:49.101Z,13.82
2018-11-12T20:23:13.785Z,13.70
2018-11-12T20:26:38.475Z,13.38
2018-11-12T20:30:03.218Z,13.52
2018-11-12T20:33:27.949Z,13.55
2018-11-12T20:36:52.705Z,13.70
2018-11-12T20:40:17.764Z,13.95
2018-11-12T20:43:42.531Z,13.89
2018-11-12T20:47:07.283Z,13.94
2018-11-12T20:50:32.027Z,13.44
2018-11-12T20:53:56.769Z,13.69
2018-11-12T20:57:21.432Z,13.65
2018-11-12T21:00:46.200Z,13.72
2018-11-12T21:04:10.915Z,13.46
2018-11-12T21:07:35.586Z,13.57
2018-11-12T21:11:00.285Z,13.73
2018-11-12T21:14:24.985Z,13.85
2018-11-12T21:17:49.773Z,13.68
2018-11-12T21:21:14.464Z,13.58
2018-11-12T21:24:39.187Z,13.60
2018-11-12T21:28:03.855Z,13.68
2018-11-12T21:31:28.609Z,13.68
2018-11-12T21:34:53.341Z,13.60
2018-11-12T21:38:18.065Z,13.59
2018-11-12T21:41:43.021Z,13.51
2018-11-12T21:45:09.670Z,13.50
2018-11-12T21:48:34.360Z,13.55
2018-11-12T21:51:59.031Z,13.51
2018-11-12T21:55:23.772Z,13.35
2018-11-12T21:58:48.621Z,13.35
2018-11-12T22:02:13.352Z,13.28
2018-11-12T22:05:38.052Z,13.15
2018-11-12T22:09:02.859Z,13.25
2018-11-12T22:12:27.582Z,13.33
2018-11-12T22:15:52.285Z,13.34
2018-11-12T22:19:17.096Z,13.23
2018-11-12T22:22:42.389Z,12.99
2018-11-12T22:26:07.470Z,13.16
2018-11-12T22:29:32.151Z,13.30
2018-11-12T22:32:57.406Z,13.17
2018-11-12T22:36:22.110Z,13.23
2018-11-12T22:39:46.848Z,13.28
2018-11-12T22:43:11.563Z,13.12
2018-11-12T22:46:36.434Z,13.15
2018-11-12T22:50:01.131Z,13.10
2018-11-12T22:53:25.923Z,13.02
2018-11-12T22:56:50.609Z,13.12
2018-11-12T23:00:24.022Z,13.12
2018-11-12T23:03:48.868Z,13.14
2018-11-12T23:07:13.627Z,13.00
2018-11-12T23:10:38.532Z,13.00
2018-11-12T23:14:03.260Z,12.96
2018-11-12T23:17:27.924Z,12.96
2018-11-12T23:20:52.574Z,12.89
2018-11-12T23:24:17.321Z,12.92
2018-11-12T23:27:42.817Z,13.04
2018-11-12T23:31:07.496Z,12.95
2018-11-12T23:34:32.212Z,12.86
2018-11-12T23:37:56.915Z,13.01
2018-11-12T23:41:24.593Z,13.00
2018-11-12T23:44:49.311Z,12.86
2018-11-12T23:48:13.950Z,12.84
2018-11-12T23:51:38.608Z,12.80
2018-11-12T23:55:03.398Z,12.73
2018-11-12T23:58:28.126Z,12.79
